Terminal Aerodrome Forecast
Issued by NWS Portland, OR

Current Version | Previous Version | Text Only | Print | Product List | Glossary On
Versions: 1 2 3 4 5 6 7 8 9 10 11 12 13 14 15 16 17 18 19 20
000
FTUS46 KPQR 240908 AAA
TAFTTD
TAF AMD
KTTD 240908Z 2409/2506 13004KT P6SM OVC015
     FM241200 11004KT P6SM -SHRASN SCT025 BKN050 BKN070
     FM241600 11007KT P6SM -SHRA BKN025 OVC050
      TEMPO 2416/2420 3SM -SHRASN
     FM242100 10006KT P6SM -SHRAGS BKN035 BKN050
     FM250400 VRB03KT P6SM VCSH SCT035 BKN050=

USA.gov is the U.S. government's official web portal to all federal, state and local government web resources and services.